Terminal Aerodrome Forecast
Issued by NWS Louisville, KY

Home | Current Version | Previous Version | Text Only | Print | Product List | Glossary On
Versions: 1 2 3 4 5 6 7 8 9 10 11 12 13 14 15
000
FTUS43 KLMK 041512 AAB
TAFBWG
TAF AMD
KBWG 041512Z 0415/0512 12008KT P6SM BKN006 OVC060
     FM042000 21004KT 4SM -RA BR OVC007
     FM050200 29004KT 6SM -DZ BR OVC004
     FM050800 36003KT 3SM BR OVC006=

USA.gov is the U.S. government's official web portal to all federal, state and local government web resources and services.